Tiempo atmosférico en la estación meteorológica de Piloña, Asturias (270 m.)



Fecha
DESCASC
Temp. máxima en grados centígrados (hora)
DESCASC
Temp. mínima en grados centígrados (hora)
DESCASC
Temp. media en grados centígrados
DESCASC
Racha de viento máxima en m/sg (hora)
DESCASC
Velocidad máxima media en intervalos de 10 minutos(hora)
DESCASC
Precipitaciones diarias en mm
DESCASC
Precipitaciones de 00:00 a 06:00 en mm
DESCASC
Precipitaciones de 06:00 a 12:00 en mm
DESCASC
Precipitaciones de 12:00 a 18:00 en mm
DESCASC
Precipitaciones de 18:00 a 24:00 en mm
DESCASC

Gráficas

Temp. máximas Temp. mínimas Temp. medias Precipitaciones Rachas de viento máximas Velocidades máximas media en intervalos de 10 minutos

Datos horarios

Fecha y hora oficial Temperatura (ºC) Velocidad del viento (km/h) Dirección del viento Racha (km/h) Dirección de racha Precipitación (mm) Presión (hPa) Tendencia (hPa) Humedad (%)
2019-05-22 23:00:00 15.7 0 Calma 4 Este 0 -- -- 82
2019-05-22 22:00:00 17.8 3 Nordeste 11 Nordeste 0 -- -- 72
2019-05-22 21:00:00 20 3 Norte 7 Norte 0 -- -- 56
2019-05-22 20:00:00 22.8 3 Norte 10 Norte 0 -- -- 46
2019-05-22 19:00:00 23 5 Nordeste 13 Nordeste 0 -- -- 52
2019-05-22 18:00:00 23 5 Norte 15 Nordeste 0 -- -- 56
2019-05-22 17:00:00 23.2 5 Norte 17 Nordeste 0 -- -- 57
2019-05-22 16:00:00 23.4 9 Nordeste 17 Norte 0 -- -- 56
2019-05-22 15:00:00 24.2 6 Norte 13 Nordeste 0 -- -- 52
2019-05-22 14:00:00 22.8 6 Sudeste 12 Este 0 -- -- 58
2019-05-22 13:00:00 21.2 6 Sur 16 Sudeste 0 -- -- 58
2019-05-22 12:00:00 19.1 5 Sudeste 17 Este 0 -- -- 55
2019-05-22 11:00:00 16.1 5 Sudeste 10 Sudeste 0 -- -- 79
2019-05-22 10:00:00 12.6 0 Calma 5 Sudeste 0 -- -- 93
2019-05-22 09:00:00 10.8 2 Sudeste 6 Sudeste 0 -- -- 99
2019-05-22 08:00:00 10.1 2 Este 8 Este 0 -- -- 100
2019-05-22 07:00:00 9.5 2 Nordeste 4 Nordeste 0 -- -- 100
2019-05-22 06:00:00 9.5 0 Calma 2 Este 0 -- -- 99
2019-05-22 05:00:00 9.4 0 Calma 2 Norte 0 -- -- 99
2019-05-22 04:00:00 9.4 0 Calma 9 Nordeste 0 -- -- 97
2019-05-22 03:00:00 10.2 5 Este 12 Este 0 -- -- 97
2019-05-22 02:00:00 10.3 4 Este 11 Este 0 -- -- 95
2019-05-22 01:00:00 10.8 7 Este 14 Este 0 -- -- 94
2019-05-22 00:00:00 11.2 3 Nordeste 10 Norte 0 -- -- 95
2019-05-21 23:00:00 12.5 5 Nordeste 11 Norte 0 -- -- 92
2019-05-21 22:00:00 12.6 5 Norte 14 Nordeste 0 -- -- 92
2019-05-21 21:00:00 13.9 4 Norte 14 Norte 0 -- -- 87
2019-05-21 20:00:00 15.8 6 Norte 16 Nordeste 0 -- -- 79
2019-05-21 19:00:00 17.4 5 Nordeste 15 Nordeste 0 -- -- 74
2019-05-21 18:00:00 17.9 8 Nordeste 18 Nordeste 0 -- -- 74
2019-05-21 17:00:00 18.2 8 Nordeste 20 Norte 0 -- -- 74
2019-05-21 16:00:00 18.2 9 Norte 21 Nordeste 0 -- -- 71
2019-05-21 15:00:00 18.4 9 Norte 18 Nordeste 0 -- -- 70
2019-05-21 14:00:00 17.9 8 Nordeste 23 Nordeste 0 -- -- 74
2019-05-21 13:00:00 17.8 7 Nordeste 18 Este 0 -- -- 69
2019-05-21 12:00:00 16.7 6 Este 13 Este 0 -- -- 72
2019-05-21 11:00:00 13.7 4 Sudeste 12 Este 0 -- -- 85
2019-05-21 10:00:00 10.3 2 Sur 8 Sudeste 0 -- -- 100
2019-05-21 09:00:00 8.5 0 Calma 4 Sudeste 0 -- -- 100
2019-05-21 08:00:00 7.2 0 Calma 4 Este 0 -- -- 100
2019-05-21 07:00:00 6.9 0 Calma 3 Sudeste 0 -- -- 100
2019-05-21 06:00:00 7 0 Calma 2 Este 0 -- -- 100
2019-05-21 05:00:00 7.4 0 Calma 2 Este 0 -- -- 99
2019-05-21 04:00:00 7.9 0 Calma 0 Calma 0 -- -- 99
2019-05-21 03:00:00 8 0 Calma 3 Sudeste 0 -- -- 98
2019-05-21 02:00:00 8.8 0 Calma 9 Este 0 -- -- 98
2019-05-21 01:00:00 9.1 2 Este 8 Este 0 -- -- 96
2019-05-21 00:00:00 9.7 0 Calma 6 Nordeste 0 -- -- 94
2019-05-20 23:00:00 10.6 3 Nordeste 8 Nordeste 0 -- -- 93
2019-05-20 22:00:00 11.5 0 Calma 9 Este 0 -- -- 89
2019-05-20 21:00:00 12.9 3 Este 12 Nordeste 0 -- -- 84
2019-05-20 20:00:00 13.9 5 Este 14 Sudeste 0 -- -- 80
2019-05-20 19:00:00 13.7 4 Este 10 Nordeste 0 -- -- 79
2019-05-20 18:00:00 13.7 3 Nordeste 13 Nordeste 0 -- -- 80
2019-05-20 17:00:00 13.6 8 Nordeste 17 Nordeste 0 -- -- 77
2019-05-20 16:00:00 14.3 10 Nordeste 21 Nordeste 0 -- -- 72
2019-05-20 15:00:00 15.7 10 Nordeste 21 Nordeste 0 -- -- 66
2019-05-20 14:00:00 15.5 9 Nordeste 21 Este 0 -- -- 69
2019-05-20 13:00:00 14.7 8 Nordeste 15 Norte 0 -- -- 72
2019-05-20 12:00:00 14.1 3 Este 10 Este 0 -- -- 72
2019-05-20 11:00:00 13 4 Sur 8 Sur 0 -- -- 79
2019-05-20 10:00:00 8.2 0 Calma 4 Sudoeste 0 -- -- 100
2019-05-20 09:00:00 6.2 0 Calma 3 Oeste 0 -- -- 100
2019-05-20 08:00:00 5.4 0 Calma 2 Noroeste 0.2 -- -- 100
2019-05-20 07:00:00 5.3 0 Calma 2 Oeste 0 -- -- 100
2019-05-20 06:00:00 5.1 0 Calma 2 Oeste 0 -- -- 100
2019-05-20 05:00:00 5.4 0 Calma 2 Noroeste 0 -- -- 99
2019-05-20 04:00:00 5.8 0 Calma 0 Calma 0 -- -- 98
2019-05-20 03:00:00 6.7 0 Calma 2 Oeste 0 -- -- 98
2019-05-20 02:00:00 7.6 0 Calma 4 Oeste 0 -- -- 98
2019-05-20 01:00:00 8.2 0 Calma 4 Noroeste 0 -- -- 96
2019-05-20 00:00:00 9.4 0 Calma 3 Oeste 0 -- -- 92
2019-05-19 23:00:00 10.1 0 Calma 12 Nordeste 0 -- -- 91
2019-05-19 22:00:00 10.7 7 Norte 14 Norte 0 -- -- 87
2019-05-19 21:00:00 12.5 2 Norte 7 Noroeste 0 -- -- 79
2019-05-19 20:00:00 13.2 2 Nordeste 16 Oeste 0 -- -- 77
2019-05-19 19:00:00 14 5 Noroeste 19 Noroeste 0 -- -- 73
2019-05-19 18:00:00 14 5 Nordeste 15 Noroeste 0 -- -- 73
2019-05-19 17:00:00 13.6 5 Norte 15 Oeste 0 -- -- 75
2019-05-19 16:00:00 14.3 6 Noroeste 28 Nordeste 0 -- -- 69
2019-05-19 15:00:00 15.3 6 Noroeste 15 Noroeste 0 -- -- 64
2019-05-19 14:00:00 14.8 4 Noroeste 19 Oeste 0 -- -- 68
2019-05-19 13:00:00 14 8 Oeste 22 Oeste 0 -- -- 65
2019-05-19 12:00:00 13.1 10 Oeste 21 Oeste 0 -- -- 69
2019-05-19 11:00:00 11.5 4 Noroeste 13 Noroeste 0 -- -- 77
2019-05-19 10:00:00 10.5 2 Oeste 8 Oeste 0 -- -- 87
2019-05-19 09:00:00 8.5 2 Oeste 7 Noroeste 0 -- -- 95
2019-05-19 08:00:00 7.4 0 Calma 4 Noroeste 0 -- -- 98
2019-05-19 07:00:00 6.9 0 Calma 6 Oeste 0 -- -- 96
2019-05-19 06:00:00 7 0 Calma 5 Noroeste 0 -- -- 96
2019-05-19 05:00:00 7.4 2 Noroeste 8 Noroeste 0 -- -- 95
2019-05-19 04:00:00 8.4 2 Noroeste 14 Noroeste 0 -- -- 93
2019-05-19 03:00:00 8.9 3 Noroeste 11 Oeste 0 -- -- 92
2019-05-19 02:00:00 9 4 Noroeste 10 Noroeste 0 -- -- 93
2019-05-19 01:00:00 9 3 Noroeste 13 Noroeste 0 -- -- 95
2019-05-19 00:00:00 9.2 5 Noroeste 15 Noroeste 0.2 -- -- 95
2019-05-18 23:00:00 9.5 5 Noroeste 17 Oeste 0.6 -- -- 94
2019-05-18 22:00:00 10.6 7 Noroeste 21 Oeste 0.6 -- -- 89
2019-05-18 21:00:00 11.3 0 Calma 7 Noroeste 0 -- -- 86
2019-05-18 20:00:00 12 3 Noroeste 20 Oeste 0 -- -- 82
2019-05-18 19:00:00 11.3 9 Oeste 20 Oeste 0 -- -- 82
2019-05-18 18:00:00 11.1 6 Noroeste 23 Noroeste 0.4 -- -- 87
2019-05-18 17:00:00 11.3 5 Oeste 18 Oeste 0 -- -- 87
2019-05-18 16:00:00 10.8 5 Oeste 24 Oeste 0.4 -- -- 92
2019-05-18 15:00:00 10.2 8 Noroeste 19 Noroeste 1.4 -- -- 91
2019-05-18 14:00:00 9.9 8 Oeste 26 Noroeste 0.6 -- -- 91
2019-05-18 13:00:00 10.2 11 Oeste 29 Oeste 0.4 -- -- 87
2019-05-18 12:00:00 10.7 10 Oeste 28 Oeste 0 -- -- 81
2019-05-18 11:00:00 9.9 8 Oeste 17 Noroeste 0.2 -- -- 87
2019-05-18 10:00:00 8.7 3 Noroeste 17 Oeste 0 -- -- 94
2019-05-18 09:00:00 7.8 3 Noroeste 13 Oeste 0.4 -- -- 97
2019-05-18 08:00:00 7.4 4 Noroeste 15 Oeste 1.8 -- -- 96
2019-05-18 07:00:00 7.3 3 Noroeste 10 Oeste 0.6 -- -- 97
2019-05-18 06:00:00 7.3 3 Noroeste 14 Oeste 1.2 -- -- 95
2019-05-18 05:00:00 7.3 0 Calma 10 Oeste 0.4 -- -- 95
2019-05-18 04:00:00 7.2 0 Calma 14 Noroeste 0 -- -- 95
2019-05-18 03:00:00 7.2 2 Oeste 14 Noroeste 1 -- -- 95
2019-05-18 02:00:00 6.8 3 Noroeste 18 Oeste 0 -- -- 94
2019-05-18 01:00:00 7.5 2 Noroeste 26 Oeste 0.8 -- -- 96
2019-05-18 00:00:00 7.9 2 Noroeste 8 Oeste 0.6 -- -- 97
2019-05-17 23:00:00 8.3 3 Noroeste 13 Oeste 0.8 -- -- 94
2019-05-17 22:00:00 8.7 3 Noroeste 14 Noroeste 0 -- -- 94
2019-05-17 21:00:00 9.1 5 Noroeste 19 Oeste 0.6 -- -- 93
2019-05-17 20:00:00 9.8 11 Oeste 22 Oeste 0.4 -- -- 92
2019-05-17 19:00:00 10.5 8 Oeste 34 Oeste 0.6 -- -- 91
2019-05-17 18:00:00 12.9 12 Oeste 27 Noroeste 0 -- -- 78
2019-05-17 17:00:00 11.5 7 Oeste 28 Oeste 0.8 -- -- 92
2019-05-17 16:00:00 10.5 8 Oeste 19 Oeste 2.6 -- -- 93
2019-05-17 15:00:00 10.2 8 Oeste 25 Oeste 4.2 -- -- 95
2019-05-17 14:00:00 11.5 7 Sudoeste 18 Oeste 0.4 -- -- 91
2019-05-17 13:00:00 10.6 4 Noroeste 35 Oeste 2.8 -- -- 91
2019-05-17 12:00:00 11.6 7 Oeste 23 Oeste 2.4 -- -- 94
2019-05-17 11:00:00 10.6 3 Noroeste 12 Oeste 0.2 -- -- 96
2019-05-17 10:00:00 9.8 2 Noroeste 13 Oeste 0 -- -- 97
2019-05-17 09:00:00 9.4 4 Oeste 13 Oeste 0 -- -- 97
2019-05-17 08:00:00 9.1 4 Noroeste 9 Oeste 0 -- -- 97
2019-05-17 07:00:00 9.1 4 Oeste 19 Norte 1 -- -- 96
2019-05-17 06:00:00 9.3 6 Oeste 28 Noroeste 0.2 -- -- 93
2019-05-17 05:00:00 9.3 12 Oeste 40 Oeste 3.2 -- -- 97
2019-05-17 04:00:00 9.4 11 Oeste 34 Sudoeste 3.4 -- -- 97
2019-05-17 03:00:00 9.5 13 Oeste 31 Oeste 1.2 -- -- 96
2019-05-17 02:00:00 9.8 9 Oeste 24 Sudoeste 0.2 -- -- 90
2019-05-17 01:00:00 9.8 4 Oeste 23 Oeste 0 -- -- 88
2019-05-17 00:00:00 10.4 9 Oeste 21 Norte 0.4 -- -- 88
2019-05-16 23:00:00 10.7 3 Oeste 12 Noroeste 0 -- -- 97
2019-05-16 22:00:00 10.9 6 Oeste 14 Oeste 1.2 -- -- 95
2019-05-16 21:00:00 11.4 2 Noroeste 6 Norte 0.4 -- -- 95
2019-05-16 20:00:00 11.8 4 Oeste 13 Oeste 0.2 -- -- 93
2019-05-16 19:00:00 12.2 2 Noroeste 13 Sudoeste 0.4 -- -- 92
2019-05-16 18:00:00 12.5 3 Norte 17 Norte 0.2 -- -- 89
2019-05-16 17:00:00 13.5 4 Norte 15 Noroeste 0 -- -- 88
2019-05-16 16:00:00 15.1 0 Calma 6 Nordeste 0 -- -- 86
2019-05-16 15:00:00 14.5 2 Norte 6 Noroeste 0 -- -- 86
2019-05-16 14:00:00 14.2 0 Calma 6 Sur 0 -- -- 87
2019-05-16 13:00:00 13 3 Oeste 10 Sudoeste 0 -- -- 93
2019-05-16 12:00:00 12.7 4 Oeste 10 Oeste 0 -- -- 95
2019-05-16 11:00:00 12.6 2 Oeste 8 Sudoeste 0 -- -- 93
2019-05-16 10:00:00 12.4 4 Oeste 13 Oeste 0 -- -- 94
2019-05-16 09:00:00 12 8 Oeste 16 Oeste 0 -- -- 95
2019-05-16 08:00:00 11.9 5 Oeste 15 Oeste 0 -- -- 96
2019-05-16 07:00:00 11.9 5 Noroeste 14 Noroeste 0 -- -- 96
2019-05-16 06:00:00 11.7 4 Noroeste 9 Noroeste 0 -- -- 95
2019-05-16 05:00:00 11.5 0 Calma 12 Oeste 0 -- -- 96
2019-05-16 04:00:00 11.4 3 Oeste 7 Noroeste 0 -- -- 94
2019-05-16 03:00:00 12 2 Oeste 9 Noroeste 0 -- -- 92
2019-05-16 02:00:00 13 4 Oeste 10 Oeste 0 -- -- 88
2019-05-16 01:00:00 12.8 0 Calma 9 Oeste 0 -- -- 89
2019-05-16 00:00:00 12.4 0 Calma 3 Nordeste 0 -- -- 89
2019-05-15 23:00:00 13.3 0 Calma 4 Este 0 -- -- 86
2019-05-15 22:00:00 14.4 3 Nordeste 13 Nordeste 0 -- -- 81
2019-05-15 21:00:00 16.3 7 Nordeste 18 Norte 0 -- -- 74
2019-05-15 20:00:00 18.8 9 Nordeste 21 Norte 0 -- -- 65
2019-05-15 19:00:00 20.3 8 Norte 19 Nordeste 0 -- -- 61
2019-05-15 18:00:00 23.1 9 Nordeste 20 Norte 0 -- -- 57
2019-05-15 17:00:00 24.1 9 Norte 17 Norte 0 -- -- 58
2019-05-15 16:00:00 24.3 9 Nordeste 23 Nordeste 0 -- -- 60
2019-05-15 15:00:00 24.8 6 Nordeste 15 Nordeste 0 -- -- 54
2019-05-15 14:00:00 24.4 6 Nordeste 16 Este 0 -- -- 56
2019-05-15 13:00:00 23 6 Sudeste 16 Sudeste 0 -- -- 51
2019-05-15 12:00:00 21 8 Este 17 Este 0 -- -- 54
2019-05-15 11:00:00 18 5 Sudeste 12 Sudeste 0 -- -- 69
2019-05-15 10:00:00 12.4 2 Noroeste 4 Norte 0 -- -- 99
2019-05-15 09:00:00 9.4 0 Calma 2 Oeste 0 -- -- 100
2019-05-15 08:00:00 7.8 0 Calma 3 Nordeste 0 -- -- 100
2019-05-15 07:00:00 7.4 0 Calma 2 Norte 0 -- -- 100
2019-05-15 06:00:00 7.4 0 Calma 4 Este 0 -- -- 99
2019-05-15 05:00:00 7.2 0 Calma 5 Nordeste 0 -- -- 98
2019-05-15 04:00:00 8.1 0 Calma 4 Este 0 -- -- 97
2019-05-15 03:00:00 8.9 2 Nordeste 3 Este 0 -- -- 97
2019-05-15 02:00:00 9.4 0 Calma 5 Norte 0 -- -- 96
2019-05-15 01:00:00 10 2 Noroeste 5 Oeste 0 -- -- 95
2019-05-15 00:00:00 10.9 0 Calma 6 Este 0 -- -- 93
2019-05-14 23:00:00 11.4 3 Nordeste 9 Nordeste 0 -- -- 91
2019-05-14 22:00:00 12.6 5 Nordeste 12 Norte 0 -- -- 88
2019-05-14 21:00:00 14.3 7 Nordeste 15 Nordeste 0 -- -- 81
2019-05-14 20:00:00 16.5 9 Nordeste 18 Norte 0 -- -- 74
2019-05-14 19:00:00 17.8 9 Norte 18 Nordeste 0 -- -- 70
2019-05-14 18:00:00 19 10 Nordeste 20 Norte 0 -- -- 69
2019-05-14 17:00:00 20.1 9 Norte 22 Norte 0 -- -- 64
2019-05-14 16:00:00 20.7 10 Norte 23 Norte 0 -- -- 63
2019-05-14 15:00:00 21.5 10 Norte 22 Norte 0 -- -- 56
2019-05-14 14:00:00 22.6 7 Este 19 Sudeste 0 -- -- 54
2019-05-14 13:00:00 21.2 9 Este 26 Este 0 -- -- 48
2019-05-14 12:00:00 19.6 9 Este 25 Este 0 -- -- 43
2019-05-14 11:00:00 17.3 9 Este 18 Este 0 -- -- 60
2019-05-14 10:00:00 13.4 4 Este 9 Sudeste 0 -- -- 74
2019-05-14 09:00:00 10.3 3 Este 5 Este 0 -- -- 91
2019-05-14 08:00:00 7.4 0 Calma 6 Sudeste 0 -- -- 99
2019-05-14 07:00:00 6 0 Calma 4 Norte 0 -- -- 96
2019-05-14 06:00:00 6.1 3 Este 6 Nordeste 0 -- -- 94
2019-05-14 05:00:00 7.1 0 Calma 4 Este 0 -- -- 93
2019-05-14 04:00:00 7.6 0 Calma 6 Este 0 -- -- 91
2019-05-14 03:00:00 8.2 3 Este 8 Sudeste 0 -- -- 90
2019-05-14 02:00:00 9 2 Este 13 Este 0 -- -- 86
2019-05-14 01:00:00 9.6 5 Este 14 Nordeste 0 -- -- 85
2019-05-14 00:00:00 9.8 6 Este 13 Este 0 -- -- 84
2019-05-13 23:00:00 10.5 8 Este 19 Este 0 -- -- 81
2019-05-13 22:00:00 11.4 5 Este 20 Este 0 -- -- 75
2019-05-13 21:00:00 13.5 15 Este 26 Este 0 -- -- 65
2019-05-13 20:00:00 16.5 8 Este 20 Nordeste 0 -- -- 60
2019-05-13 19:00:00 17.7 7 Nordeste 32 Este 0 -- -- 61
2019-05-13 18:00:00 18.8 9 Este 23 Este 0 -- -- 50
2019-05-13 17:00:00 20 8 Este 22 Nordeste 0 -- -- 52
2019-05-13 16:00:00 20.3 12 Este 23 Nordeste 0 -- -- 56
2019-05-13 15:00:00 20.2 10 Este 21 Sudeste 0 -- -- 55
2019-05-13 14:00:00 20.5 9 Este 26 Este 0 -- -- 51
2019-05-13 13:00:00 19.8 12 Este 27 Nordeste 0 -- -- 52
2019-05-13 12:00:00 18.1 10 Este 26 Sudeste 0 -- -- 54
2019-05-13 11:00:00 16.8 8 Este 19 Sudeste 0 -- -- 60
2019-05-13 10:00:00 13.7 7 Sudeste 14 Este 0 -- -- 71
2019-05-13 09:00:00 12.2 4 Este 8 Nordeste 0 -- -- 79
2019-05-13 08:00:00 8.9 0 Calma 4 Este 0 -- -- 94
2019-05-13 07:00:00 7.8 0 Calma 6 Este 0 -- -- 92
2019-05-13 06:00:00 7.8 0 Calma 4 Este 0 -- -- 93
2019-05-13 05:00:00 9.1 3 Nordeste 10 Nordeste 0 -- -- 88
2019-05-13 04:00:00 9.6 5 Este 12 Este 0 -- -- 89
2019-05-13 03:00:00 9.5 5 Este 10 Este 0 -- -- 89
2019-05-13 02:00:00 9.7 0 Calma 8 Este 0 -- -- 89
2019-05-13 01:00:00 9.9 4 Este 10 Este 0 -- -- 91
2019-05-13 00:00:00 10.2 4 Este 8 Este 0 -- -- 90
2019-05-12 23:00:00 11 5 Este 16 Este 0 -- -- 87
2019-05-12 22:00:00 12.3 9 Este 23 Este 0 -- -- 83
2019-05-12 21:00:00 14.1 10 Este 25 Este 0 -- -- 77
2019-05-12 20:00:00 16.5 12 Este 31 Este 0 -- -- 71
2019-05-12 19:00:00 18.1 14 Este 30 Este 0 -- -- 69
2019-05-12 18:00:00 18.2 7 Este 27 Este 0 -- -- 69
2019-05-12 17:00:00 19.3 8 Este 19 Nordeste 0 -- -- 64
2019-05-12 16:00:00 19.7 9 Este 23 Este 0 -- -- 61
2019-05-12 15:00:00 19.3 11 Nordeste 24 Este 0 -- -- 69
2019-05-12 14:00:00 18.7 10 Sudeste 24 Este 0 -- -- 59
2019-05-12 13:00:00 18.2 10 Este 21 Este 0 -- -- 55
2019-05-12 12:00:00 16.2 10 Sudeste 21 Sudeste 0 -- -- 65
2019-05-12 11:00:00 14.5 10 Este 19 Este 0 -- -- 69
2019-05-12 10:00:00 12 4 Este 15 Este 0 -- -- 85
2019-05-12 09:00:00 10.7 4 Este 12 Este 0 -- -- 92
2019-05-12 08:00:00 8.7 4 Este 17 Nordeste 0 -- -- 100
2019-05-12 07:00:00 8.1 3 Este 8 Este 0 -- -- 99
2019-05-12 06:00:00 8.4 3 Este 5 Este 0 -- -- 97
2019-05-12 05:00:00 8.8 3 Este 14 Este 0 -- -- 97
2019-05-12 04:00:00 9.6 4 Este 9 Este 0 -- -- 98
2019-05-12 03:00:00 9.2 5 Este 15 Este 0 -- -- 98
2019-05-12 02:00:00 9.4 5 Este 10 Este 0 -- -- 97
2019-05-12 01:00:00 9.8 5 Este 12 Nordeste 0 -- -- 95
2019-05-12 00:00:00 10.1 6 Este 12 Este 0 -- -- 95
2019-05-11 23:00:00 10.4 2 Nordeste 6 Nordeste 0 -- -- 92
2019-05-11 22:00:00 11.7 2 Norte 8 Nordeste 0 -- -- 89
2019-05-11 21:00:00 13.2 4 Norte 12 Nordeste 0 -- -- 81
2019-05-11 20:00:00 14.8 6 Nordeste 18 Nordeste 0 -- -- 73
2019-05-11 19:00:00 15.6 9 Nordeste 22 Nordeste 0 -- -- 72
2019-05-11 18:00:00 17.2 10 Nordeste 19 Nordeste 0 -- -- 70
2019-05-11 17:00:00 17.7 9 Nordeste 21 Nordeste 0 -- -- 70
2019-05-11 16:00:00 18 7 Nordeste 21 Nordeste 0 -- -- 71
2019-05-11 15:00:00 17.5 12 Nordeste 30 Nordeste 0 -- -- 73
2019-05-11 14:00:00 17.4 13 Nordeste 25 Nordeste 0 -- -- 72
2019-05-11 13:00:00 17.6 5 Nordeste 17 Noroeste 0 -- -- 63
2019-05-11 12:00:00 16.6 6 Noroeste 18 Oeste 0 -- -- 66
2019-05-11 11:00:00 15.3 6 Noroeste 18 Oeste 0 -- -- 71
2019-05-11 10:00:00 14.6 4 Oeste 10 Oeste 0 -- -- 78
2019-05-11 09:00:00 13.2 2 Noroeste 5 Noroeste 0 -- -- 85
2019-05-11 08:00:00 11.4 0 Calma 5 Noroeste 0 -- -- 96
2019-05-11 07:00:00 11.4 0 Calma 3 Noroeste 0 -- -- 95
2019-05-11 06:00:00 11.7 0 Calma 5 Oeste 0 -- -- 96
2019-05-11 05:00:00 11.8 0 Calma 5 Oeste 0 -- -- 97
2019-05-11 04:00:00 11.8 0 Calma 4 Noroeste 0 -- -- 97
2019-05-11 03:00:00 11.9 0 Calma 4 Oeste 0 -- -- 97
2019-05-11 02:00:00 11.9 2 Oeste 9 Oeste 0 -- -- 98
2019-05-11 01:00:00 12 0 Calma 6 Oeste 0.2 -- -- 98
2019-05-11 00:00:00 12.2 2 Noroeste 4 Noroeste 0.2 -- -- 96
2019-05-10 23:00:00 12.6 0 Calma 4 Oeste 0 -- -- 94
2019-05-10 22:00:00 13 0 Calma 7 Norte 0.2 -- -- 93
2019-05-10 21:00:00 13.6 3 Noroeste 14 Norte 0 -- -- 91
2019-05-10 20:00:00 14.4 4 Norte 17 Norte 0 -- -- 90
2019-05-10 19:00:00 15.7 6 Noroeste 35 Norte 0 -- -- 84
2019-05-10 18:00:00 20.1 12 Nordeste 24 Norte 0 -- -- 74
2019-05-10 17:00:00 21 7 Este 18 Sudeste 0 -- -- 69
2019-05-10 16:00:00 19.7 10 Este 18 Este 0 -- -- 77
2019-05-10 15:00:00 19.5 6 Noroeste 21 Nordeste 0 -- -- 78
2019-05-10 14:00:00 18.3 10 Nordeste 19 Nordeste 0 -- -- 82
2019-05-10 13:00:00 18.7 5 Nordeste 18 Este 0 -- -- 84
2019-05-10 12:00:00 16.8 8 Este 18 Este 0 -- -- 86
2019-05-10 11:00:00 15.4 8 Este 17 Este 0 -- -- 97
2019-05-10 10:00:00 13 0 Calma 8 Este 0 -- -- 100
2019-05-10 09:00:00 11.1 0 Calma 5 Este 0 -- -- 100
2019-05-10 08:00:00 9.7 0 Calma 3 Nordeste 0 -- -- 100
2019-05-10 07:00:00 9.5 0 Calma 4 Norte 0 -- -- 100
2019-05-10 06:00:00 9.7 0 Calma 3 Nordeste 0 -- -- 100
2019-05-10 05:00:00 10.1 0 Calma 3 Nordeste 0 -- -- 100
2019-05-10 04:00:00 10.2 0 Calma 3 Norte 0 -- -- 99
2019-05-10 03:00:00 10.6 0 Calma 4 Nordeste 0.2 -- -- 99
2019-05-10 02:00:00 10.7 0 Calma 4 Noroeste 0 -- -- 99
2019-05-10 01:00:00 10.7 3 Este 5 Nordeste 0 -- -- 99
2019-05-10 00:00:00 10.8 3 Sudoeste 8 Este 0.2 -- -- 99
2019-05-09 23:00:00 10.6 4 Este 13 Sur 4.6 -- -- 99
2019-05-09 22:00:00 10.9 3 Este 19 Este 4.2 -- -- 99
2019-05-09 21:00:00 10 10 Este 18 Este 4 -- -- 98
2019-05-09 20:00:00 9.9 3 Sudeste 20 Nordeste 4.6 -- -- 96
2019-05-09 19:00:00 10 10 Sudeste 21 Sudeste 2.4 -- -- 95
2019-05-09 18:00:00 11.3 5 Nordeste 18 Este 0.2 -- -- 91
2019-05-09 17:00:00 11.9 4 Sudeste 13 Este 0.6 -- -- 89
2019-05-09 16:00:00 12 4 Sudeste 9 Nordeste 1.2 -- -- 89
2019-05-09 15:00:00 12.1 4 Norte 9 Nordeste 1.4 -- -- 85
2019-05-09 14:00:00 13.6 5 Este 10 Este 0.2 -- -- 72
2019-05-09 13:00:00 14.4 4 Sudeste 14 Este 0 -- -- 59
2019-05-09 12:00:00 14.1 5 Este 11 Este 0 -- -- 56
2019-05-09 11:00:00 11.8 2 Sur 5 Sur 0 -- -- 70
2019-05-09 10:00:00 8.3 0 Calma 3 Norte 0 -- -- 90
2019-05-09 09:00:00 6.8 0 Calma 4 Norte 0 -- -- 91
2019-05-09 08:00:00 5 0 Calma 3 Noroeste 0 -- -- 89
2019-05-09 07:00:00 4.5 0 Calma 2 Sudoeste 0 -- -- 88
2019-05-09 06:00:00 5.1 0 Calma 4 Sudoeste 0 -- -- 85
2019-05-09 05:00:00 5.8 0 Calma 4 Noroeste 0 -- -- 83
2019-05-09 04:00:00 7.1 0 Calma 4 Sudoeste 0 -- -- 76
2019-05-09 03:00:00 8.6 0 Calma 4 Norte 0 -- -- 70
2019-05-09 02:00:00 10.4 3 Norte 9 Noroeste 0 -- -- 61
2019-05-09 01:00:00 10.8 3 Noroeste 9 Noroeste 0 -- -- 57
2019-05-09 00:00:00 11.2 3 Norte 11 Oeste 0 -- -- 57
2019-05-08 23:00:00 13 4 Noroeste 21 Oeste 0 -- -- 52
2019-05-08 22:00:00 14.8 7 Oeste 29 Noroeste 0 -- -- 44
2019-05-08 21:00:00 16.5 9 Noroeste 40 Oeste 0 -- -- 42
2019-05-08 20:00:00 18.8 15 Oeste 41 Noroeste 0 -- -- 39
2019-05-08 19:00:00 20.9 13 Noroeste 39 Noroeste 0 -- -- 34
2019-05-08 18:00:00 21.8 16 Oeste 52 Oeste 0 -- -- 31
2019-05-08 17:00:00 21.8 15 Oeste 43 Oeste 0 -- -- 30
2019-05-08 16:00:00 20.8 9 Oeste 29 Noroeste 0 -- -- 38
2019-05-08 15:00:00 19.4 4 Oeste 14 Este 0 -- -- 54
2019-05-08 14:00:00 18.9 10 Este 20 Nordeste 0 -- -- 65
2019-05-08 13:00:00 18.5 5 Sudoeste 13 Nordeste 0 -- -- 61
2019-05-08 12:00:00 16.6 5 Sur 18 Este 0 -- -- 71
2019-05-08 11:00:00 14.9 5 Este 12 Este 0 -- -- 84
2019-05-08 10:00:00 13.2 4 Sudeste 10 Nordeste 0 -- -- 88
2019-05-08 09:00:00 12.7 6 Este 10 Este 0 -- -- 90
2019-05-08 08:00:00 12.5 2 Noroeste 7 Noroeste 0 -- -- 91
2019-05-08 07:00:00 12.5 5 Norte 22 Nordeste 0 -- -- 91
2019-05-08 06:00:00 13.6 12 Norte 32 Norte 0 -- -- 82
2019-05-08 05:00:00 17.7 16 Sudoeste 39 Sudoeste 0 -- -- 48
2019-05-08 04:00:00 17.9 16 Sudoeste 45 Sudoeste 0 -- -- 45
2019-05-08 03:00:00 18.9 21 Sudoeste 46 Sudoeste 0 -- -- 45
2019-05-08 02:00:00 19.1 12 Sudoeste 45 Sudoeste 0 -- -- 42
2019-05-08 01:00:00 17.8 8 Oeste 28 Noroeste 0 -- -- 42
2019-05-08 00:00:00 14.6 6 Oeste 18 Sur 0 -- -- 75
2019-05-07 23:00:00 14.5 0 Calma 12 Nordeste 0 -- -- 80
2019-05-07 22:00:00 15 2 Nordeste 11 Este 0 -- -- 82
2019-05-07 21:00:00 16.2 5 Este 11 Este 0 -- -- 73
2019-05-07 20:00:00 16.7 2 Nordeste 15 Nordeste 0 -- -- 70
2019-05-07 19:00:00 17.9 7 Nordeste 14 Norte 0 -- -- 67
2019-05-07 18:00:00 18.2 3 Este 17 Nordeste 0 -- -- 67
2019-05-07 17:00:00 18.7 11 Este 21 Este 0 -- -- 66
2019-05-07 16:00:00 19.1 7 Norte 19 Nordeste 0 -- -- 64
2019-05-07 15:00:00 19.9 5 Nordeste 15 Nordeste 0 -- -- 65
2019-05-07 14:00:00 19.8 7 Este 17 Nordeste 0 -- -- 64
2019-05-07 13:00:00 20.3 5 Sudeste 12 Sudoeste 0 -- -- 63
2019-05-07 12:00:00 17.3 5 Sudeste 10 Sur 0 -- -- 69
2019-05-07 11:00:00 15.4 4 Sudeste 9 Sudeste 0 -- -- 77
2019-05-07 10:00:00 12.1 3 Sudoeste 5 Sudoeste 0 -- -- 90
2019-05-07 09:00:00 9.4 0 Calma 4 Nordeste 0 -- -- 97
2019-05-07 08:00:00 8 0 Calma 6 Norte 0 -- -- 98
2019-05-07 07:00:00 7.7 0 Calma 2 Norte 0 -- -- 97
2019-05-07 06:00:00 7.7 0 Calma 4 Norte 0 -- -- 97
2019-05-07 05:00:00 7.9 0 Calma 7 Nordeste 0 -- -- 97
2019-05-07 04:00:00 8 0 Calma 3 Norte 0 -- -- 95
2019-05-07 03:00:00 8.7 0 Calma 6 Noroeste 0 -- -- 94
2019-05-07 02:00:00 9.2 0 Calma 5 Norte 0 -- -- 91
2019-05-07 01:00:00 10 0 Calma 4 Oeste 0 -- -- 89
2019-05-07 00:00:00 10.8 0 Calma 8 Oeste 0 -- -- 86
2019-05-06 23:00:00 11.9 0 Calma 6 Nordeste 0 -- -- 82
2019-05-06 22:00:00 13.2 0 Calma 5 Norte 0 -- -- 78
2019-05-06 21:00:00 15 0 Calma 13 Noroeste 0 -- -- 72
2019-05-06 20:00:00 15.7 4 Norte 18 Norte 0 -- -- 68
2019-05-06 19:00:00 17.9 6 Norte 16 Nordeste 0 -- -- 63
2019-05-06 18:00:00 18.7 5 Norte 18 Norte 0 -- -- 62
2019-05-06 17:00:00 19.9 8 Noroeste 21 Oeste 0 -- -- 53
2019-05-06 16:00:00 19.9 4 Nordeste 19 Nordeste 0 -- -- 54
2019-05-06 15:00:00 19.6 7 Norte 24 Norte 0 -- -- 55
2019-05-06 14:00:00 20.2 6 Nordeste 15 Noroeste 0 -- -- 56
2019-05-06 13:00:00 19.4 3 Norte 10 Nordeste 0 -- -- 57
2019-05-06 12:00:00 16.2 5 Sur 13 Sudeste 0 -- -- 55
2019-05-06 11:00:00 13.4 6 Sur 10 Sur 0 -- -- 67
2019-05-06 10:00:00 8.5 3 Sudoeste 5 Sudoeste 0 -- -- 89
2019-05-06 09:00:00 5.8 0 Calma 2 Norte 0 -- -- 93
2019-05-06 08:00:00 3.8 0 Calma 0 Calma 0 -- -- 98
2019-05-06 07:00:00 3.2 0 Calma 2 Nordeste 0 -- -- 97
2019-05-06 06:00:00 3.4 0 Calma 3 Noroeste 0 -- -- 96
2019-05-06 05:00:00 4 0 Calma 0 Calma 0 -- -- 94
2019-05-06 04:00:00 4.6 0 Calma 2 Noroeste 0 -- -- 92
2019-05-06 03:00:00 5.2 0 Calma 4 Este 0 -- -- 90
2019-05-06 02:00:00 6.2 0 Calma 5 Este 0 -- -- 86
2019-05-06 01:00:00 6.7 2 Este 15 Este 0 -- -- 83
2019-05-06 00:00:00 7.1 5 Este 21 Este 0 -- -- 82
2019-05-05 23:00:00 7.7 8 Este 17 Este 0 -- -- 80
2019-05-05 22:00:00 8.7 5 Este 14 Este 0 -- -- 76
2019-05-05 21:00:00 10.8 4 Este 24 Este 0 -- -- 69
2019-05-05 20:00:00 12.7 9 Este 23 Sudeste 0 -- -- 62
2019-05-05 19:00:00 13.9 10 Este 26 Este 0 -- -- 59
2019-05-05 18:00:00 14.6 13 Este 25 Este 0 -- -- 57
2019-05-05 17:00:00 14.9 14 Este 28 Sudeste 0 -- -- 56
2019-05-05 16:00:00 14.8 13 Este 31 Este 0 -- -- 56
2019-05-05 15:00:00 14.4 12 Este 29 Sudeste 0 -- -- 56
2019-05-05 14:00:00 14.2 13 Este 24 Este 0 -- -- 58
2019-05-05 13:00:00 13.6 14 Este 28 Este 0 -- -- 55
2019-05-05 12:00:00 12.9 9 Este 32 Este 0 -- -- 57
2019-05-05 11:00:00 11.4 15 Este 30 Nordeste 0 -- -- 55
2019-05-05 10:00:00 9.5 13 Este 28 Este 0 -- -- 59
2019-05-05 09:00:00 8.8 6 Este 15 Sudeste 0 -- -- 68
2019-05-05 08:00:00 7.1 7 Este 16 Este 0 -- -- 77
2019-05-05 07:00:00 6.5 5 Este 12 Este 0 -- -- 83
2019-05-05 06:00:00 7.7 8 Este 24 Nordeste 0 -- -- 81
2019-05-05 05:00:00 8.5 13 Este 25 Este 0 -- -- 83
2019-05-05 04:00:00 9.2 13 Este 30 Este 0 -- -- 83
2019-05-05 03:00:00 9.1 5 Este 18 Este 0 -- -- 84
2019-05-05 02:00:00 9.7 11 Este 26 Este 0 -- -- 81
2019-05-05 01:00:00 9.6 11 Este 22 Este 0 -- -- 83
2019-05-05 00:00:00 9.9 6 Este 23 Este 0 -- -- 91
2019-05-04 23:00:00 10.8 11 Este 23 Este 0 -- -- 84
2019-05-04 22:00:00 11.2 6 Este 17 Este 0 -- -- 86
2019-05-04 21:00:00 11.8 11 Nordeste 18 Nordeste 0 -- -- 83
2019-05-04 20:00:00 12.6 6 Nordeste 20 Este 0 -- -- 79
2019-05-04 19:00:00 13.2 8 Nordeste 23 Nordeste 0 -- -- 77
2019-05-04 18:00:00 13.7 11 Nordeste 25 Nordeste 0 -- -- 76
2019-05-04 17:00:00 14.9 10 Nordeste 27 Nordeste 0 -- -- 70
2019-05-04 16:00:00 16.3 12 Nordeste 28 Nordeste 0 -- -- 66
2019-05-04 15:00:00 16.4 13 Nordeste 27 Nordeste 0 -- -- 63
2019-05-04 14:00:00 17.8 8 Norte 15 Norte 0 -- -- 54
2019-05-04 13:00:00 16.3 4 Oeste 12 Noroeste 0 -- -- 62
2019-05-04 12:00:00 15.2 4 Sur 10 Sudoeste 0 -- -- 67
2019-05-04 11:00:00 11.8 4 Sudoeste 8 Sudoeste 0 -- -- 87
2019-05-04 10:00:00 7 0 Calma 3 Este 0 -- -- 100
2019-05-04 09:00:00 4.3 0 Calma 2 Norte 0 -- -- 100
2019-05-04 08:00:00 2.9 0 Calma 2 Norte 0 -- -- 100
2019-05-04 07:00:00 3.2 0 Calma 2 Norte 0 -- -- 99
2019-05-04 06:00:00 3.6 0 Calma 3 Nordeste 0 -- -- 99
2019-05-04 05:00:00 3.9 0 Calma 2 Nordeste 0 -- -- 99
2019-05-04 04:00:00 4.3 0 Calma 0 Calma 0 -- -- 97
2019-05-04 03:00:00 5.1 0 Calma 2 Nordeste 0 -- -- 97
2019-05-04 02:00:00 5.8 0 Calma 5 Nordeste 0 -- -- 97
2019-05-04 01:00:00 6.5 0 Calma 2 Este 0 -- -- 95
2019-05-04 00:00:00 7.4 0 Calma 8 Nordeste 0 -- -- 94
2019-05-03 23:00:00 8.5 0 Calma 8 Nordeste 0 -- -- 91
2019-05-03 22:00:00 9.3 0 Calma 6 Nordeste 0 -- -- 88
2019-05-03 21:00:00 11.4 4 Nordeste 13 Nordeste 0 -- -- 81
2019-05-03 20:00:00 13.1 8 Nordeste 15 Nordeste 0 -- -- 75
2019-05-03 19:00:00 13.2 7 Nordeste 18 Nordeste 0 -- -- 77
2019-05-03 18:00:00 13.1 5 Nordeste 13 Nordeste 0 -- -- 77
2019-05-03 17:00:00 13.6 4 Norte 14 Nordeste 0 -- -- 72
2019-05-03 16:00:00 13 3 Nordeste 10 Nordeste 0 -- -- 77
2019-05-03 15:00:00 12.2 5 Nordeste 9 Nordeste 0 -- -- 81
2019-05-03 14:00:00 12.7 4 Sudeste 6 Este 0 -- -- 72
2019-05-03 13:00:00 10.9 0 Calma 8 Sudoeste 0 -- -- 84
2019-05-03 12:00:00 10.9 4 Sur 7 Oeste 0 -- -- 85
2019-05-03 11:00:00 9.5 4 Sudoeste 11 Oeste 1 -- -- 97
2019-05-03 10:00:00 9 3 Noroeste 8 Noroeste 1.2 -- -- 96
2019-05-03 09:00:00 9 0 Calma 3 Norte 0 -- -- 95
2019-05-03 08:00:00 8.8 0 Calma 4 Norte 0 -- -- 96
2019-05-03 07:00:00 8.9 0 Calma 2 Nordeste 0 -- -- 95
2019-05-03 06:00:00 8.8 0 Calma 4 Nordeste 0 -- -- 94
2019-05-03 05:00:00 8.9 0 Calma 2 Nordeste 0 -- -- 93
2019-05-03 04:00:00 8.8 0 Calma 4 Nordeste 0 -- -- 93
2019-05-03 03:00:00 9 0 Calma 5 Nordeste 0 -- -- 92
2019-05-03 02:00:00 9.1 2 Norte 6 Nordeste 0 -- -- 90
2019-05-03 01:00:00 9.4 2 Nordeste 5 Nordeste 0 -- -- 89
2019-05-03 00:00:00 9.9 0 Calma 5 Este 0 -- -- 90
2019-05-02 23:00:00 10.3 0 Calma 8 Norte 0 -- -- 87
2019-05-02 22:00:00 10.5 0 Calma 16 Nordeste 0 -- -- 86
2019-05-02 21:00:00 11 6 Nordeste 17 Nordeste 0 -- -- 84
2019-05-02 20:00:00 11.9 6 Nordeste 16 Nordeste 0 -- -- 81
2019-05-02 19:00:00 12.2 9 Nordeste 24 Norte 0 -- -- 80
2019-05-02 18:00:00 12.9 12 Nordeste 23 Nordeste 0 -- -- 76
2019-05-02 17:00:00 13.6 10 Norte 22 Nordeste 0 -- -- 73
2019-05-02 16:00:00 13.7 11 Nordeste 23 Nordeste 0 -- -- 72
2019-05-02 15:00:00 14.4 7 Nordeste 17 Nordeste 0 -- -- 73
2019-05-02 14:00:00 13.8 5 Nordeste 15 Nordeste 0 -- -- 73
2019-05-02 13:00:00 12.6 6 Nordeste 14 Nordeste 0 -- -- 79
2019-05-02 12:00:00 11.9 3 Sur 8 Sur 0 -- -- 79
2019-05-02 11:00:00 9.2 0 Calma 4 Nordeste 0 -- -- 89
2019-05-02 10:00:00 6.9 0 Calma 3 Este 0 -- -- 100
2019-05-02 09:00:00 5.3 0 Calma 4 Nordeste 0 -- -- 100
2019-05-02 08:00:00 4.2 0 Calma 3 Nordeste 0 -- -- 100
2019-05-02 07:00:00 4 0 Calma 4 Nordeste 0 -- -- 100
2019-05-02 06:00:00 3.2 0 Calma 6 Nordeste 0 -- -- 99
2019-05-02 05:00:00 3 0 Calma 2 Noroeste 0 -- -- 98
2019-05-02 04:00:00 3.9 0 Calma 4 Noroeste 0 -- -- 98
2019-05-02 03:00:00 4.8 0 Calma 2 Norte 0 -- -- 97
2019-05-02 02:00:00 5.6 0 Calma 2 Noroeste 0 -- -- 97
2019-05-02 01:00:00 6.2 0 Calma 2 Norte 0 -- -- 95
2019-05-02 00:00:00 7.3 0 Calma 4 Noroeste 0 -- -- 94
2019-05-01 23:00:00 8.1 0 Calma 3 Noroeste 0 -- -- 91
2019-05-01 22:00:00 9.5 0 Calma 11 Noroeste 0 -- -- 84
2019-05-01 21:00:00 11.2 4 Norte 14 Nordeste 0 -- -- 76
2019-05-01 20:00:00 12.6 4 Norte 11 Noroeste 0 -- -- 76
2019-05-01 19:00:00 12.4 2 Norte 10 Noroeste 0 -- -- 80
2019-05-01 18:00:00 11.9 4 Norte 13 Norte 0 -- -- 84
2019-05-01 17:00:00 13.2 4 Oeste 9 Oeste 0 -- -- 80
2019-05-01 16:00:00 12.6 0 Calma 13 Oeste 0 -- -- 84
2019-05-01 15:00:00 13.3 5 Sudoeste 14 Sudoeste 0 -- -- 77
2019-05-01 14:00:00 12.9 6 Oeste 14 Oeste 0 -- -- 76
2019-05-01 13:00:00 11.8 5 Oeste 13 Oeste 0 -- -- 90
2019-05-01 12:00:00 11.9 3 Sudoeste 9 Sudoeste 0.2 -- -- 91
2019-05-01 11:00:00 12.1 3 Noroeste 10 Oeste 0 -- -- 88
2019-05-01 10:00:00 11.7 2 Norte 9 Noroeste 0 -- -- 90
2019-05-01 09:00:00 11.1 0 Calma 9 Norte 0 -- -- 94
2019-05-01 08:00:00 10.9 4 Norte 10 Nordeste 0 -- -- 95
2019-05-01 07:00:00 11.1 3 Norte 10 Norte 0 -- -- 95
2019-05-01 06:00:00 11.3 4 Nordeste 8 Nordeste 0 -- -- 96
2019-05-01 05:00:00 11.7 0 Calma 4 Nordeste 0 -- -- 97
2019-05-01 04:00:00 11.7 0 Calma 6 Norte 0 -- -- 97
2019-05-01 03:00:00 11.7 3 Nordeste 6 Norte 0 -- -- 97
2019-05-01 02:00:00 11.8 2 Nordeste 5 Norte 0 -- -- 96
2019-05-01 01:00:00 12 2 Norte 7 Nordeste 0 -- -- 96
2019-05-01 00:00:00 12.3 5 Nordeste 10 Norte 0 -- -- 93
2019-04-30 23:00:00 12.8 2 Norte 10 Nordeste 0 -- -- 91
2019-04-30 22:00:00 13 5 Nordeste 12 Nordeste 0 -- -- 90
2019-04-30 21:00:00 13.3 7 Nordeste 15 Nordeste 0 -- -- 89
2019-04-30 20:00:00 14.8 8 Nordeste 17 Norte 0 -- -- 82
2019-04-30 19:00:00 16.3 8 Nordeste 18 Nordeste 0 -- -- 78
2019-04-30 18:00:00 18.4 7 Norte 19 Noroeste 0 -- -- 71
2019-04-30 17:00:00 18.8 9 Norte 21 Nordeste 0 -- -- 69
2019-04-30 16:00:00 18.9 11 Nordeste 19 Nordeste 0 -- -- 69
2019-04-30 15:00:00 18.9 9 Nordeste 18 Nordeste 0 -- -- 69
2019-04-30 14:00:00 18.1 6 Nordeste 17 Nordeste 0 -- -- 73
2019-04-30 13:00:00 16 6 Noroeste 16 Noroeste 0 -- -- 80
2019-04-30 12:00:00 12.9 4 Sudoeste 8 Oeste 0 -- -- 93
2019-04-30 11:00:00 10.5 5 Sudoeste 8 Sudoeste 0 -- -- 99
2019-04-30 10:00:00 9.6 0 Calma 6 Noroeste 0 -- -- 100
2019-04-30 09:00:00 8.9 2 Noroeste 5 Noroeste 0 -- -- 100
2019-04-30 08:00:00 8.2 2 Noroeste 4 Noroeste 0 -- -- 100
2019-04-30 07:00:00 8.3 2 Noroeste 5 Noroeste 0 -- -- 100
2019-04-30 06:00:00 8.4 0 Calma 4 Noroeste 0 -- -- 100
2019-04-30 05:00:00 8.5 0 Calma 3 Nordeste 0 -- -- 99
2019-04-30 04:00:00 8.4 0 Calma 4 Este 0 -- -- 99
2019-04-30 03:00:00 8.6 0 Calma 4 Este 0 -- -- 98
2019-04-30 02:00:00 8.9 0 Calma 9 Este 0 -- -- 95
2019-04-30 01:00:00 9.4 4 Este 11 Este 0 -- -- 96
2019-04-30 00:00:00 9.9 4 Nordeste 12 Nordeste 0 -- -- 95
2019-04-29 23:00:00 10.5 3 Nordeste 12 Nordeste 0 -- -- 92
2019-04-29 22:00:00 11.7 8 Nordeste 14 Nordeste 0 -- -- 89
2019-04-29 21:00:00 12.9 8 Nordeste 16 Nordeste 0 -- -- 84
2019-04-29 20:00:00 15.5 6 Norte 17 Norte 0 -- -- 75
2019-04-29 19:00:00 17 7 Norte 18 Norte 0 -- -- 69
2019-04-29 18:00:00 18.1 8 Norte 18 Norte 0 -- -- 68
2019-04-29 17:00:00 18.4 9 Norte 20 Norte 0 -- -- 68
2019-04-29 16:00:00 18.9 11 Norte 20 Noroeste 0 -- -- 66
2019-04-29 15:00:00 19.5 8 Norte 19 Nordeste 0 -- -- 65
2019-04-29 14:00:00 20.1 8 Nordeste 19 Nordeste 0 -- -- 59
2019-04-29 13:00:00 18.4 9 Sudeste 18 Sudeste 0 -- -- 62
2019-04-29 12:00:00 16.8 7 Sudeste 17 Sur 0 -- -- 70
2019-04-29 11:00:00 14.8 5 Sudeste 10 Sudeste 0 -- -- 75
2019-04-29 10:00:00 11.7 5 Este 13 Este 0 -- -- 84
2019-04-29 09:00:00 9.5 4 Este 13 Nordeste 0 -- -- 94
2019-04-29 08:00:00 7.3 0 Calma 3 Norte 0 -- -- 99
2019-04-29 07:00:00 6.8 0 Calma 3 Norte 0 -- -- 97
2019-04-29 06:00:00 7.3 3 Norte 4 Norte 0 -- -- 97
2019-04-29 05:00:00 7.6 0 Calma 4 Nordeste 0 -- -- 96
2019-04-29 04:00:00 8.3 0 Calma 5 Este 0 -- -- 93
2019-04-29 03:00:00 8.9 0 Calma 14 Nordeste 0 -- -- 91
2019-04-29 02:00:00 9.2 8 Este 15 Nordeste 0 -- -- 91
2019-04-29 01:00:00 9.8 3 Este 16 Este 0 -- -- 88
2019-04-29 00:00:00 10.1 9 Este 18 Este 0 -- -- 89
2019-04-28 23:00:00 10.3 8 Este 17 Este 0 -- -- 87
2019-04-28 22:00:00 10.9 8 Este 13 Este 0 -- -- 85
2019-04-28 21:00:00 11.9 4 Norte 12 Nordeste 0 -- -- 82
2019-04-28 20:00:00 14.3 5 Norte 18 Norte 0 -- -- 74
2019-04-28 19:00:00 15.5 8 Norte 18 Nordeste 0 -- -- 70
2019-04-28 18:00:00 17 8 Norte 17 Nordeste 0 -- -- 69
2019-04-28 17:00:00 17.8 8 Nordeste 20 Nordeste 0 -- -- 67
2019-04-28 16:00:00 17.6 12 Nordeste 21 Norte 0 -- -- 69
2019-04-28 15:00:00 17.9 10 Norte 23 Nordeste 0 -- -- 68
2019-04-28 14:00:00 18.5 6 Este 18 Este 0 -- -- 61
2019-04-28 13:00:00 17.2 7 Sudeste 18 Sudeste 0 -- -- 60
2019-04-28 12:00:00 15.8 9 Este 20 Sudeste 0 -- -- 67
2019-04-28 11:00:00 13.4 9 Este 23 Sudeste 0 -- -- 73
2019-04-28 10:00:00 11.8 9 Este 21 Este 0 -- -- 81
2019-04-28 09:00:00 10.6 4 Este 12 Sudeste 0 -- -- 91
2019-04-28 08:00:00 10 5 Este 12 Este 0 -- -- 93
2019-04-28 07:00:00 10 5 Este 12 Este 0 -- -- 93
2019-04-28 06:00:00 10.1 5 Este 11 Este 0 -- -- 93
2019-04-28 05:00:00 10.3 3 Este 10 Este 0 -- -- 91
2019-04-28 04:00:00 10.5 3 Este 7 Este 0 -- -- 91
2019-04-28 03:00:00 10.5 3 Este 9 Este 0 -- -- 90
2019-04-28 02:00:00 10.6 3 Este 9 Este 0 -- -- 89
2019-04-28 01:00:00 10.9 4 Este 6 Este 0 -- -- 88
2019-04-28 00:00:00 11.2 0 Calma 2 Nordeste 0 -- -- 84
2019-04-27 23:00:00 11.3 0 Calma 8 Nordeste 0 -- -- 83
2019-04-27 22:00:00 11.4 5 Nordeste 13 Nordeste 0 -- -- 82
2019-04-27 21:00:00 12.1 2 Nordeste 13 Norte 0 -- -- 81
2019-04-27 20:00:00 12.9 6 Nordeste 12 Nordeste 0 -- -- 78
2019-04-27 19:00:00 13.8 3 Norte 11 Nordeste 0 -- -- 77
2019-04-27 18:00:00 14.5 7 Norte 18 Norte 0 -- -- 75
2019-04-27 17:00:00 15.5 6 Norte 21 Nordeste 0 -- -- 71
2019-04-27 16:00:00 16.2 8 Nordeste 23 Nordeste 0 -- -- 73
2019-04-27 15:00:00 16.8 6 Norte 22 Nordeste 0 -- -- 72
2019-04-27 14:00:00 16.1 10 Nordeste 21 Este 0 -- -- 77
2019-04-27 13:00:00 14.9 5 Oeste 17 Sudoeste 0 -- -- 79
2019-04-27 12:00:00 13.9 8 Oeste 15 Sudoeste 0 -- -- 81
2019-04-27 11:00:00 11.8 3 Sudoeste 9 Oeste 0 -- -- 89
2019-04-27 10:00:00 10.3 0 Calma 4 Nordeste 0 -- -- 94
2019-04-27 09:00:00 8.7 0 Calma 3 Norte 0 -- -- 97
2019-04-27 08:00:00 8.1 0 Calma 4 Noroeste 0 -- -- 98
2019-04-27 07:00:00 7.9 0 Calma 6 Nordeste 0 -- -- 98
2019-04-27 06:00:00 7.2 0 Calma 4 Este 0 -- -- 99
2019-04-27 05:00:00 6.6 2 Sur 4 Sur 0 -- -- 98
2019-04-27 04:00:00 6.5 0 Calma 2 Sur 0 -- -- 98
2019-04-27 03:00:00 6.5 0 Calma 2 Nordeste 0 -- -- 96
2019-04-27 02:00:00 6.7 0 Calma 2 Nordeste 0 -- -- 95
2019-04-27 01:00:00 7.2 0 Calma 4 Nordeste 0 -- -- 94
2019-04-27 00:00:00 8.4 0 Calma 5 Nordeste 0 -- -- 89
2019-04-26 23:00:00 8.9 3 Nordeste 6 Nordeste 0 -- -- 88
2019-04-26 22:00:00 9.9 0 Calma 10 Norte 0 -- -- 83
2019-04-26 21:00:00 11.4 6 Norte 16 Norte 0 -- -- 76
2019-04-26 20:00:00 13 7 Norte 20 Norte 0 -- -- 70
2019-04-26 19:00:00 13.9 6 Nordeste 20 Nordeste 0 -- -- 69
2019-04-26 18:00:00 14.9 9 Norte 22 Noroeste 0 -- -- 62
2019-04-26 17:00:00 14.1 6 Norte 23 Norte 0 -- -- 66
2019-04-26 16:00:00 15.7 10 Norte 32 Oeste 0 -- -- 64
2019-04-26 15:00:00 16.3 10 Noroeste 29 Noroeste 0 -- -- 54
2019-04-26 14:00:00 16.3 9 Noroeste 37 Oeste 0 -- -- 54
2019-04-26 13:00:00 14.8 14 Oeste 37 Noroeste 0 -- -- 58
2019-04-26 12:00:00 13.5 16 Oeste 39 Oeste 0 -- -- 60
2019-04-26 11:00:00 11.6 8 Oeste 28 Oeste 0 -- -- 74
2019-04-26 10:00:00 11.2 13 Oeste 28 Oeste 0 -- -- 72
2019-04-26 09:00:00 10.1 7 Oeste 20 Oeste 0 -- -- 80
2019-04-26 08:00:00 9.2 5 Noroeste 26 Oeste 0 -- -- 83
2019-04-26 07:00:00 9 3 Noroeste 18 Noroeste 0 -- -- 84
2019-04-26 06:00:00 9.3 5 Noroeste 20 Noroeste 0 -- -- 87
2019-04-26 05:00:00 9.5 8 Noroeste 24 Noroeste 0.2 -- -- 89
2019-04-26 04:00:00 10 5 Noroeste 22 Oeste 0 -- -- 84
2019-04-26 03:00:00 9.7 6 Noroeste 15 Oeste 0 -- -- 84
2019-04-26 02:00:00 8.6 4 Noroeste 7 Oeste 0.2 -- -- 93
2019-04-26 01:00:00 8.2 2 Norte 4 Norte 0.2 -- -- 93
2019-04-26 00:00:00 7.9 2 Norte 6 Norte 0.2 -- -- 93
2019-04-25 23:00:00 7.9 3 Norte 9 Oeste 0 -- -- 92
2019-04-25 22:00:00 8.3 7 Oeste 30 Norte 1 -- -- 84
2019-04-25 21:00:00 10.9 13 Noroeste 33 Noroeste 0 -- -- 64
2019-04-25 20:00:00 13.2 12 Noroeste 33 Noroeste 0 -- -- 51
2019-04-25 19:00:00 12.9 7 Noroeste 32 Sudoeste 0.6 -- -- 57
2019-04-25 18:00:00 14.7 16 Sudoeste 35 Sudoeste 0 -- -- 44
2019-04-25 17:00:00 15.9 19 Sudoeste 45 Oeste 0 -- -- 36
2019-04-25 16:00:00 17.2 19 Sudoeste 44 Sudoeste 0 -- -- 33
2019-04-25 15:00:00 17.7 12 Sudoeste 42 Oeste 0 -- -- 37
2019-04-25 14:00:00 16.9 19 Sudoeste 37 Sudoeste 0 -- -- 36
2019-04-25 13:00:00 16.5 19 Sudoeste 37 Sudoeste 0 -- -- 38
2019-04-25 12:00:00 15.3 17 Sudoeste 33 Oeste 0 -- -- 41
2019-04-25 11:00:00 13 8 Oeste 19 Noroeste 0 -- -- 56
2019-04-25 10:00:00 8 0 Calma 6 Sur 0 -- -- 95
2019-04-25 09:00:00 5.6 0 Calma 8 Sudeste 0 -- -- 97
2019-04-25 08:00:00 4.2 2 Oeste 6 Sudeste 0 -- -- 96
2019-04-25 07:00:00 4.6 2 Oeste 6 Oeste 0 -- -- 95
2019-04-25 06:00:00 4.7 0 Calma 8 Nordeste 0 -- -- 98
2019-04-25 05:00:00 4.8 2 Nordeste 6 Nordeste 0 -- -- 98
2019-04-25 04:00:00 5.5 0 Calma 4 Noroeste 0 -- -- 97
2019-04-25 03:00:00 6.3 0 Calma 6 Este 0 -- -- 97
2019-04-25 02:00:00 6.5 0 Calma 5 Norte 0 -- -- 96
2019-04-25 01:00:00 7 4 Nordeste 8 Nordeste 0 -- -- 96
2019-04-25 00:00:00 7.6 2 Nordeste 6 Sudeste 0 -- -- 94
2019-04-24 23:00:00 8.5 0 Calma 6 Norte 0 -- -- 91
2019-04-24 22:00:00 9.9 6 Noroeste 19 Noroeste 0.4 -- -- 84
2019-04-24 21:00:00 11 3 Norte 8 Norte 0 -- -- 82
2019-04-24 20:00:00 11.7 5 Nordeste 22 Nordeste 0 -- -- 77
2019-04-24 19:00:00 13.3 4 Nordeste 20 Nordeste 0 -- -- 68
2019-04-24 18:00:00 14.5 8 Norte 25 Sur 0 -- -- 67
2019-04-24 17:00:00 17.5 18 Sudoeste 42 Sudoeste 0 -- -- 41
2019-04-24 16:00:00 16.3 15 Sudoeste 46 Sudoeste 0 -- -- 46
2019-04-24 15:00:00 16.5 20 Sudoeste 42 Sudoeste 0 -- -- 46
2019-04-24 14:00:00 14.7 3 Este 9 Sudeste 0 -- -- 56
2019-04-24 13:00:00 14 2 Este 11 Sur 0 -- -- 61
2019-04-24 12:00:00 9.8 3 Este 9 Este 0.2 -- -- 81
2019-04-24 11:00:00 7.8 0 Calma 6 Sur 0 -- -- 97
2019-04-24 10:00:00 5.8 2 Oeste 4 Norte 0 -- -- 100
2019-04-24 09:00:00 5.2 2 Norte 5 Oeste 0 -- -- 100
2019-04-24 08:00:00 4.4 0 Calma 4 Oeste 0 -- -- 100
2019-04-24 07:00:00 4.1 2 Noroeste 5 Noroeste 0 -- -- 100
2019-04-24 06:00:00 4.1 0 Calma 5 Oeste 0 -- -- 100
2019-04-24 05:00:00 3.9 0 Calma 6 Noroeste 0 -- -- 99
2019-04-24 04:00:00 4.6 0 Calma 6 Sudoeste 0 -- -- 99
2019-04-24 03:00:00 4.8 0 Calma 7 Este 0 -- -- 99
2019-04-24 02:00:00 5.2 0 Calma 6 Nordeste 0 -- -- 98
2019-04-24 01:00:00 6 3 Este 6 Este 0 -- -- 97
2019-04-24 00:00:00 6.6 0 Calma 4 Nordeste 0 -- -- 96
2019-04-23 23:00:00 6.6 0 Calma 4 Sudeste 0 -- -- 95
2019-04-23 22:00:00 7.3 5 Este 13 Este 0 -- -- 93
2019-04-23 21:00:00 9.1 3 Norte 5 Norte 0 -- -- 89
2019-04-23 20:00:00 9.7 2 Sudoeste 6 Oeste 0 -- -- 89
2019-04-23 19:00:00 9.1 3 Oeste 21 Noroeste 2.6 -- -- 90
2019-04-23 18:00:00 9.9 12 Noroeste 32 Noroeste 1.8 -- -- 75
2019-04-23 17:00:00 12.1 7 Norte 26 Este 0.8 -- -- 84
2019-04-23 16:00:00 12.9 14 Nordeste 29 Nordeste 0.2 -- -- 79
2019-04-23 15:00:00 15.8 6 Nordeste 16 Nordeste 0 -- -- 72
2019-04-23 14:00:00 15.2 4 Norte 16 Nordeste 0 -- -- 76
2019-04-23 13:00:00 13.2 4 Norte 18 Nordeste 0.6 -- -- 82
2019-04-23 12:00:00 10.4 5 Nordeste 15 Nordeste 0 -- -- 92
2019-04-23 11:00:00 10.4 2 Oeste 4 Oeste 0.2 -- -- 94
2019-04-23 10:00:00 10 0 Calma 5 Norte 1.4 -- -- 95
2019-04-23 09:00:00 10.1 0 Calma 9 Nordeste 0 -- -- 90
2019-04-23 08:00:00 10 0 Calma 13 Norte 0 -- -- 90
2019-04-23 07:00:00 10.5 3 Norte 9 Noroeste 0 -- -- 91
2019-04-23 06:00:00 10.8 0 Calma 14 Nordeste 0 -- -- 93
2019-04-23 05:00:00 11.1 5 Norte 11 Nordeste 0 -- -- 86
2019-04-23 04:00:00 10.9 0 Calma 4 Norte 0 -- -- 91
2019-04-23 03:00:00 11.4 2 Nordeste 5 Nordeste 0 -- -- 88
2019-04-23 02:00:00 11.7 0 Calma 14 Norte 0.2 -- -- 86
2019-04-23 01:00:00 12.9 4 Oeste 12 Oeste 0 -- -- 78
2019-04-23 00:00:00 13.1 3 Noroeste 10 Noroeste 0 -- -- 69